.
WxDataArchive / Data Records for 2011-04-13
2011-04-12 April 2011 2011-04-14

Data Records for Wednesday, 13 April 2011

Time	Temp	Chill	HIndex	Humid	Dewpt	 Wind 	HiWind	WindDir	Rain 	Barom 
-----	----	-----	------	-----	-----	------	------	-------	-----	----- 
00:00	44.5	44.5	44.5	54	28.9	0	0	---	0.00	30.071 
00:05	44.2	44.2	44.2	55	29.1	0	0	---	0.00	30.071 
00:10	44.1	44.1	44.1	55	29.0	0	0	---	0.00	30.071 
00:15	43.9	43.9	43.9	55	28.8	0	0	---	0.00	30.068 
00:20	43.8	43.8	43.8	55	28.7	0	0	---	0.00	30.068 
00:25	43.8	43.8	43.8	55	28.7	0	0	---	0.00	30.068 
00:30	43.8	43.8	43.8	55	28.7	0	0	---	0.00	30.071 
00:35	43.8	43.8	43.8	55	28.7	0	0	---	0.00	30.071 
00:40	43.6	43.6	43.6	55	28.5	0	0	---	0.00	30.071 
00:45	43.5	43.5	43.5	56	28.9	0	0	---	0.00	30.073 
00:50	43.2	43.2	43.2	56	28.6	0	0	---	0.00	30.073 
00:55	43.1	43.1	43.1	57	28.9	0	0	---	0.00	30.073 
01:00	42.8	42.8	42.8	58	29.1	0	0	---	0.00	30.073 
01:05	42.6	42.6	42.6	58	28.9	0	0	---	0.00	30.073 
01:10	42.5	42.5	42.5	57	28.4	0	0	---	0.00	30.073 
01:15	42.3	42.3	42.3	57	28.2	0	0	---	0.00	30.070 
01:20	42.2	42.2	42.2	58	28.5	0	0	---	0.00	30.070 
01:25	41.9	41.9	41.9	58	28.2	0	0	---	0.00	30.070 
01:30	41.6	41.6	41.6	59	28.3	0	0	---	0.00	30.069 
01:35	41.2	41.2	41.2	59	28.0	0	0	---	0.00	30.069 
01:40	40.8	40.8	40.8	61	28.4	0	0	---	0.00	30.069 
01:45	40.5	40.5	40.5	62	28.5	0	0	---	0.00	30.063 
01:50	40.2	40.2	40.2	63	28.6	0	0	---	0.00	30.063 
01:55	39.9	39.9	39.9	65	29.1	0	0	---	0.00	30.063 
02:00	39.8	39.8	39.8	65	29.0	0	0	---	0.00	30.057 
02:05	39.8	39.8	39.8	65	29.0	0	0	---	0.00	30.057 
02:10	39.6	39.6	39.6	64	28.4	0	0	---	0.00	30.057 
02:15	39.5	39.5	39.5	65	28.7	0	0	---	0.00	30.052 
02:20	39.3	39.3	39.3	64	28.2	0	0	---	0.00	30.052 
02:25	39.2	39.2	39.2	64	28.1	0	0	---	0.00	30.052 
02:30	39.1	39.1	39.1	64	28.0	0	0	---	0.00	30.048 
02:35	38.9	38.9	38.9	64	27.8	0	0	---	0.00	30.048 
02:40	38.8	38.8	38.8	65	28.1	0	0	---	0.00	30.048 
02:45	38.8	38.8	38.8	65	28.1	0	0	---	0.00	30.049 
02:50	38.6	38.6	38.6	66	28.2	0	0	---	0.00	30.049 
02:55	38.5	38.5	38.5	66	28.1	0	0	---	0.00	30.049 
03:00	38.3	38.3	38.3	66	28.0	0	0	---	0.00	30.044 
03:05	38.2	38.2	38.2	67	28.2	0	0	---	0.00	30.044 
03:10	37.9	37.9	37.9	68	28.3	0	0	---	0.00	30.044 
03:15	37.8	37.8	37.8	69	28.6	0	0	---	0.00	30.044 
03:20	37.6	37.6	37.6	69	28.4	0	0	---	0.00	30.044 
03:25	37.6	37.6	37.6	70	28.7	0	0	---	0.00	30.044 
03:30	37.6	37.6	37.6	70	28.7	0	0	---	0.00	30.049 
03:35	37.3	37.3	37.3	70	28.4	0	0	---	0.00	30.049 
03:40	37.0	37.0	37.0	69	27.8	0	0	---	0.00	30.049 
03:45	36.8	36.8	36.8	70	27.9	0	0	---	0.00	30.053 
03:50	36.6	36.6	36.6	70	27.8	0	0	---	0.00	30.053 
03:55	36.3	36.3	36.3	70	27.5	0	0	---	0.00	30.053 
04:00	36.2	36.2	36.2	71	27.7	0	0	---	0.00	30.056 
04:05	36.0	36.0	36.0	71	27.5	0	0	---	0.00	30.056 
04:10	35.9	35.9	35.9	71	27.4	0	0	---	0.00	30.056 
04:15	35.9	35.9	35.9	71	27.4	0	0	---	0.00	30.053 
04:20	35.8	35.8	35.8	71	27.3	0	0	---	0.00	30.053 
04:25	35.6	35.6	35.6	71	27.1	0	0	---	0.00	30.053 
04:30	35.5	35.5	35.5	71	27.0	0	0	---	0.00	30.048 
04:35	35.3	35.3	35.3	71	26.9	0	0	---	0.00	30.048 
04:40	35.2	35.2	35.2	72	27.1	0	0	---	0.00	30.048 
04:45	35.0	35.0	35.0	72	26.9	0	0	---	0.00	30.048 
04:50	34.9	34.9	34.9	72	26.8	0	0	---	0.00	30.048 
04:55	34.6	34.6	34.6	73	26.9	0	0	---	0.00	30.048 
05:00	34.3	34.3	34.3	73	26.6	0	0	---	0.00	30.043 
05:05	34.1	34.1	34.1	74	26.7	0	0	---	0.00	30.043 
05:10	34.1	34.1	34.1	75	27.0	0	0	---	0.00	30.043 
05:15	34.0	34.0	34.0	75	26.9	0	0	---	0.00	30.038 
05:20	33.8	33.8	33.8	76	27.1	0	0	---	0.00	30.038 
05:25	33.7	33.7	33.7	77	27.3	0	0	---	0.00	30.038 
05:30	33.7	33.7	33.7	77	27.3	0	0	---	0.00	30.033 
05:35	33.5	33.5	33.5	78	27.4	0	0	---	0.00	30.033 
05:40	33.4	33.4	33.4	78	27.3	0	0	---	0.00	30.033 
05:45	33.5	33.5	33.5	79	27.7	0	1	45	0.00	30.041 
05:50	33.5	33.5	33.5	79	27.7	0	0	---	0.00	30.041 
05:55	33.7	33.7	33.7	79	27.9	0	0	---	0.00	30.041 
06:00	33.8	33.8	33.8	78	27.7	0	0	---	0.00	30.044 
06:05	34.0	34.0	34.0	77	27.6	0	0	---	0.00	30.044 
06:10	34.0	34.0	34.0	76	27.2	0	0	---	0.00	30.044 
06:15	34.0	34.0	34.0	75	26.9	0	0	---	0.00	30.048 
06:20	33.8	33.8	33.8	75	26.7	0	0	---	0.00	30.048 
06:25	33.7	33.7	33.7	75	26.6	0	0	---	0.00	30.048 
06:30	33.4	33.4	33.4	76	26.7	0	0	---	0.00	30.053 
06:35	33.4	33.4	33.4	76	26.7	0	0	---	0.00	30.053 
06:40	33.5	33.5	33.5	76	26.8	0	0	---	0.00	30.053 
06:45	33.5	33.5	33.5	76	26.8	0	0	---	0.00	30.056 
06:50	33.5	33.5	33.5	76	26.8	0	0	---	0.00	30.056 
06:55	33.7	33.7	33.7	77	27.3	0	0	---	0.00	30.056 
07:00	33.7	33.7	33.7	76	27.0	0	0	---	0.00	30.060 
07:05	33.5	33.5	33.5	76	26.8	0	0	---	0.00	30.060 
07:10	33.5	33.5	33.5	76	26.8	0	0	---	0.00	30.060 
07:15	33.7	33.7	33.7	76	27.0	0	0	---	0.00	30.064 
07:20	34.0	34.0	34.0	75	26.9	0	0	---	0.00	30.064 
07:25	34.1	34.1	34.1	74	26.7	0	0	---	0.00	30.064 
07:30	34.3	34.3	34.3	73	26.6	0	0	---	0.00	30.071 
07:35	34.6	34.6	34.6	73	26.9	0	0	---	0.00	30.071 
07:40	34.7	34.7	34.7	73	26.9	0	0	---	0.00	30.071 
07:45	35.0	35.0	35.0	72	26.9	0	0	---	0.00	30.075 
07:50	35.6	35.6	35.6	71	27.1	0	0	---	0.00	30.075 
07:55	36.5	36.5	36.5	69	27.3	0	1	45	0.00	30.075 
08:00	37.5	37.5	37.5	67	27.6	0	1	45	0.00	30.078 
08:05	38.3	38.3	38.3	64	27.2	0	1	45	0.00	30.078 
08:10	39.1	39.1	39.1	63	27.6	0	1	45	0.00	30.078 
08:15	39.6	39.6	39.6	61	27.3	0	2	292	0.00	30.089 
08:20	40.2	40.2	40.2	60	27.4	0	1	292	0.00	30.089 
08:25	40.8	40.8	40.8	59	27.6	0	1	292	0.00	30.089 
08:30	41.3	41.3	41.3	58	27.7	0	1	292	0.00	30.088 
08:35	41.9	41.9	41.9	55	26.9	0	2	292	0.00	30.088 
08:40	42.5	42.5	42.5	54	27.0	0	2	315	0.00	30.088 
08:45	43.1	43.1	43.1	53	27.1	0	1	315	0.00	30.088 
08:50	43.6	43.6	43.6	54	28.1	0	2	315	0.00	30.088 
08:55	44.2	44.2	44.2	54	28.6	0	1	315	0.00	30.088 
09:00	44.6	44.6	44.6	52	28.1	0	2	315	0.00	30.088 
09:05	45.2	45.2	45.2	51	28.2	0	1	315	0.00	30.088 
09:10	45.5	45.5	45.5	50	28.0	0	2	315	0.00	30.088 
09:15	46.1	46.1	46.1	49	28.0	0	2	315	0.00	30.089 
09:20	46.7	46.7	46.7	48	28.1	1	2	315	0.00	30.089 
09:25	47.3	47.3	47.3	48	28.6	0	1	315	0.00	30.089 
09:30	48.0	48.0	48.0	45	27.7	0	1	315	0.00	30.088 
09:35	48.8	48.8	48.8	45	28.4	0	1	315	0.00	30.088 
09:40	49.2	49.2	49.2	45	28.8	0	2	315	0.00	30.088 
09:45	49.6	49.6	49.6	42	27.5	0	1	315	0.00	30.087 
09:50	50.2	50.2	50.2	42	28.0	0	2	315	0.00	30.087 
09:55	50.7	50.7	50.7	41	27.9	0	1	315	0.00	30.087 
10:00	51.0	51.0	51.0	41	28.1	0	1	315	0.00	30.085 
10:05	51.3	51.3	51.3	40	27.8	0	1	315	0.00	30.085 
10:10	51.9	51.9	51.9	39	27.7	0	1	315	0.00	30.085 
10:15	52.5	52.5	52.5	40	28.9	0	2	315	0.00	30.088 
10:20	53.1	53.1	53.1	38	28.2	0	1	315	0.00	30.088 
10:25	53.5	53.5	53.5	35	26.5	1	2	315	0.00	30.088 
10:30	53.8	53.8	53.8	31	23.9	1	2	315	0.00	30.086 
10:35	54.4	54.4	54.4	34	26.6	1	3	0	0.00	30.086 
10:40	54.8	54.8	54.8	31	24.8	0	2	338	0.00	30.086 
10:45	55.3	55.3	55.3	31	25.2	1	3	315	0.00	30.085 
10:50	55.6	55.6	55.6	28	23.0	1	3	338	0.00	30.085 
10:55	55.9	55.9	55.9	28	23.3	0	1	338	0.00	30.085 
11:00	56.0	56.0	56.0	27	22.5	1	2	338	0.00	30.079 
11:05	56.0	56.0	56.0	27	22.5	1	5	338	0.00	30.079 
11:10	56.3	56.3	56.3	27	22.8	1	3	0	0.00	30.079 
11:15	56.7	56.7	56.7	28	24.0	1	3	338	0.00	30.082 
11:20	57.2	57.2	57.2	28	24.4	1	2	315	0.00	30.082 
11:25	57.3	57.3	57.3	24	20.8	1	3	315	0.00	30.082 
11:30	57.6	57.6	57.6	23	20.1	1	4	315	0.00	30.082 
11:35	57.8	57.8	57.8	26	23.1	1	2	292	0.00	30.082 
11:40	58.1	58.1	58.1	25	22.5	1	4	292	0.00	30.082 
11:45	58.1	58.1	58.1	23	20.5	2	5	338	0.00	30.081 
11:50	58.1	58.1	58.1	23	20.5	1	4	292	0.00	30.081 
11:55	58.1	58.1	58.1	24	21.5	1	5	338	0.00	30.081 
12:00	58.4	58.4	58.4	22	19.7	1	3	315	0.00	30.078 
12:05	59.2	59.2	59.2	21	19.3	0	2	315	0.00	30.078 
12:10	59.6	59.6	59.6	18	16.1	1	6	270	0.00	30.078 
12:15	59.6	59.6	59.6	19	17.3	1	4	270	0.00	30.070 
12:20	59.9	59.9	59.9	20	18.7	1	3	315	0.00	30.070 
12:25	60.2	60.2	60.2	20	19.0	1	3	0	0.00	30.070 
12:30	60.5	60.5	60.5	20	19.2	1	3	45	0.00	30.066 
12:35	60.7	60.7	60.7	17	15.6	1	3	45	0.00	30.066 
12:40	60.7	60.7	60.7	17	15.6	1	4	45	0.00	30.066 
12:45	60.9	60.9	60.9	19	18.4	1	4	45	0.00	30.059 
12:50	61.0	61.0	61.0	19	18.5	1	5	90	0.00	30.059 
12:55	60.7	60.7	60.7	18	17.0	1	3	22	0.00	30.059 
13:00	60.7	60.7	60.7	20	19.4	0	2	22	0.00	30.056 
13:05	61.5	61.5	61.5	21	21.2	1	3	135	0.00	30.056 
13:10	61.5	61.5	61.5	16	14.9	0	2	0	0.00	30.056 
13:15	61.3	61.3	61.3	18	17.4	1	5	68	0.00	30.056 
13:20	61.6	61.6	61.6	20	20.1	1	4	22	0.00	30.056 
13:25	61.6	61.6	61.6	21	21.3	1	4	292	0.00	30.056 
13:30	62.3	62.3	62.3	23	24.0	0	2	315	0.00	30.053 
13:35	62.9	62.9	62.9	21	22.4	0	2	315	0.00	30.053 
13:40	62.7	62.7	62.7	19	19.9	1	3	315	0.00	30.053 
13:45	62.6	62.6	62.6	18	18.5	1	5	248	0.00	30.054 
13:50	62.4	62.4	62.4	21	22.0	1	2	338	0.00	30.054 
13:55	62.4	62.4	62.4	22	23.1	1	3	22	0.00	30.054 
14:00	62.9	62.9	62.9	22	23.5	0	1	22	0.00	30.054 
14:05	62.9	62.9	62.9	20	21.2	1	3	0	0.00	30.054 
14:10	63.2	63.2	63.2	22	23.7	1	3	270	0.00	30.054 
14:15	63.4	63.4	63.4	18	19.2	1	4	292	0.00	30.055 
14:20	63.5	63.5	63.5	19	20.5	1	5	22	0.00	30.055 
14:25	63.2	63.2	63.2	22	23.7	1	3	292	0.00	30.055 
14:30	63.4	63.4	63.4	22	23.9	1	3	90	0.00	30.051 
14:35	63.5	63.5	63.5	19	20.5	0	3	0	0.00	30.051 
14:40	63.7	63.7	63.7	22	24.1	1	3	338	0.00	30.051 
14:45	63.7	63.7	63.7	24	26.2	0	3	68	0.00	30.048 
14:50	64.2	64.2	64.2	22	24.6	0	3	45	0.00	30.048 
14:55	64.3	64.3	64.3	20	22.4	1	3	248	0.00	30.048 
15:00	64.7	64.7	64.7	21	23.9	0	2	22	0.00	30.043 
15:05	64.8	64.8	64.8	25	28.2	1	3	0	0.00	30.043 
15:10	65.2	65.2	65.2	20	23.1	0	2	0	0.00	30.043 
15:15	65.2	65.2	65.2	20	23.1	1	4	0	0.00	30.042 
15:20	64.8	64.8	64.8	20	22.8	1	5	338	0.00	30.042 
15:25	64.8	64.8	64.8	22	25.1	1	3	338	0.00	30.042 
15:30	64.7	64.7	64.7	20	22.7	1	4	292	0.00	30.040 
15:35	64.3	64.3	64.3	21	23.5	1	3	315	0.00	30.040 
15:40	64.5	64.5	64.5	20	22.5	1	3	248	0.00	30.040 
15:45	64.8	64.8	64.8	22	25.1	1	5	248	0.00	30.037 
15:50	65.5	65.5	65.5	21	24.5	1	5	315	0.00	30.037 
15:55	65.2	65.2	65.2	20	23.1	2	5	315	0.00	30.037 
16:00	65.0	65.0	65.0	21	24.1	1	3	292	0.00	30.029 
16:05	64.8	64.8	64.8	22	25.1	1	3	315	0.00	30.029 
16:10	65.0	65.0	65.0	22	25.2	1	3	45	0.00	30.029 
16:15	65.2	65.2	65.2	21	24.3	1	3	338	0.00	30.026 
16:20	65.5	65.5	65.5	22	25.6	1	3	315	0.00	30.026 
16:25	65.8	65.8	65.8	21	24.8	1	5	315	0.00	30.026 
16:30	65.5	65.5	65.5	21	24.5	1	4	270	0.00	30.023 
16:35	65.3	65.3	65.3	22	25.5	1	4	292	0.00	30.023 
16:40	65.5	65.5	65.5	19	22.2	1	5	270	0.00	30.023 
16:45	65.3	65.3	65.3	22	25.5	1	4	292	0.00	30.023 
16:50	65.3	65.3	65.3	22	25.5	0	2	22	0.00	30.023 
16:55	65.3	65.3	65.3	22	25.5	1	4	270	0.00	30.023 
17:00	65.3	65.3	65.3	20	23.2	1	5	270	0.00	30.021 
17:05	65.2	65.2	65.2	21	24.3	1	3	315	0.00	30.021 
17:10	65.2	65.2	65.2	20	23.1	0	4	225	0.00	30.021 
17:15	65.3	65.3	65.3	23	26.6	0	3	248	0.00	30.020 
17:20	65.5	65.5	65.5	20	23.4	0	1	248	0.00	30.020 
17:25	65.6	65.6	65.6	23	26.8	1	3	248	0.00	30.020 
17:30	65.6	65.6	65.6	23	26.8	0	2	248	0.00	30.021 
17:35	65.6	65.6	65.6	22	25.7	1	3	90	0.00	30.021 
17:40	65.5	65.5	65.5	23	26.7	1	3	292	0.00	30.021 
17:45	65.5	65.5	65.5	22	25.6	1	3	338	0.00	30.018 
17:50	65.5	65.5	65.5	23	26.7	0	3	338	0.00	30.018 
17:55	65.5	65.5	65.5	25	28.7	0	3	270	0.00	30.018 
18:00	65.5	65.5	65.5	24	27.8	1	2	338	0.00	30.012 
18:05	65.8	65.8	65.8	23	27.0	1	3	270	0.00	30.012 
18:10	65.6	65.6	65.6	23	26.8	0	1	270	0.00	30.012 
18:15	65.3	65.3	65.3	22	25.5	1	4	270	0.00	30.011 
18:20	65.0	65.0	65.0	23	26.3	1	3	315	0.00	30.011 
18:25	64.7	64.7	64.7	24	27.1	1	2	338	0.00	30.011 
18:30	64.7	64.7	64.7	23	26.1	1	3	292	0.00	30.014 
18:35	64.7	64.7	64.7	22	25.0	1	4	315	0.00	30.014 
18:40	64.5	64.5	64.5	23	25.9	1	3	315	0.00	30.014 
18:45	64.2	64.2	64.2	25	27.6	1	3	22	0.00	30.016 
18:50	64.0	64.0	64.0	25	27.5	0	2	22	0.00	30.016 
18:55	63.7	63.7	63.7	24	26.2	1	4	292	0.00	30.016 
19:00	63.5	63.5	63.5	24	26.1	0	1	292	0.00	30.016 
19:05	63.4	63.4	63.4	26	27.9	0	2	292	0.00	30.016 
19:10	63.2	63.2	63.2	25	26.8	1	3	292	0.00	30.016 
19:15	63.2	63.2	63.2	24	25.8	0	1	292	0.00	30.015 
19:20	63.1	63.1	63.1	25	26.7	0	2	292	0.00	30.015 
19:25	62.7	62.7	62.7	24	25.4	0	2	292	0.00	30.015 
19:30	62.6	62.6	62.6	25	26.3	0	2	292	0.00	30.013 
19:35	62.4	62.4	62.4	26	27.1	0	1	292	0.00	30.013 
19:40	62.1	62.1	62.1	25	25.9	0	1	292	0.00	30.013 
19:45	62.0	62.0	62.0	24	24.8	0	1	292	0.00	30.019 
19:50	61.8	61.8	61.8	25	25.6	0	1	292	0.00	30.019 
19:55	61.5	61.5	61.5	25	25.4	0	1	292	0.00	30.019 
20:00	61.2	61.2	61.2	25	25.1	0	0	---	0.00	30.023 
20:05	60.7	60.7	60.7	26	25.6	0	0	---	0.00	30.023 
20:10	60.2	60.2	60.2	26	25.2	0	1	292	0.00	30.023 
20:15	59.9	59.9	59.9	26	24.9	0	0	---	0.00	30.018 
20:20	59.5	59.5	59.5	28	26.4	0	0	---	0.00	30.018 
20:25	58.7	58.7	58.7	28	25.7	0	0	---	0.00	30.018 
20:30	58.1	58.1	58.1	30	26.8	0	0	---	0.00	30.020 
20:35	57.5	57.5	57.5	31	27.1	0	0	---	0.00	30.020 
20:40	56.9	56.9	56.9	30	25.8	0	0	---	0.00	30.020 
20:45	56.2	56.2	56.2	32	26.7	0	0	---	0.00	30.025 
20:50	55.6	55.6	55.6	34	27.7	0	0	---	0.00	30.025 
20:55	55.1	55.1	55.1	35	27.9	0	0	---	0.00	30.025 
21:00	54.8	54.8	54.8	36	28.4	0	0	---	0.00	30.032 
21:05	54.4	54.4	54.4	37	28.7	0	0	---	0.00	30.032 
21:10	54.1	54.1	54.1	39	29.7	0	0	---	0.00	30.032 
21:15	53.8	53.8	53.8	40	30.1	0	0	---	0.00	30.033 
21:20	53.5	53.5	53.5	41	30.4	0	0	---	0.00	30.033 
21:25	53.2	53.2	53.2	41	30.1	0	0	---	0.00	30.033 
21:30	52.9	52.9	52.9	42	30.4	0	0	---	0.00	30.035 
21:35	52.6	52.6	52.6	43	30.7	0	0	---	0.00	30.035 
21:40	52.5	52.5	52.5	43	30.7	0	0	---	0.00	30.035 
21:45	52.2	52.2	52.2	44	31.0	0	0	---	0.00	30.038 
21:50	52.0	52.0	52.0	44	30.8	0	0	---	0.00	30.038 
21:55	51.7	51.7	51.7	44	30.5	0	0	---	0.00	30.038 
22:00	51.4	51.4	51.4	44	30.2	0	0	---	0.00	30.041 
22:05	51.3	51.3	51.3	45	30.7	0	0	---	0.00	30.041 
22:10	51.0	51.0	51.0	46	31.0	0	0	---	0.00	30.041 
22:15	50.7	50.7	50.7	47	31.2	0	0	---	0.00	30.043 
22:20	50.4	50.4	50.4	48	31.5	0	0	---	0.00	30.043 
22:25	50.1	50.1	50.1	48	31.2	0	0	---	0.00	30.043 
22:30	49.9	49.9	49.9	49	31.5	0	0	---	0.00	30.046 
22:35	49.6	49.6	49.6	50	31.7	0	0	---	0.00	30.046 
22:40	49.5	49.5	49.5	51	32.1	0	0	---	0.00	30.046 
22:45	49.5	49.5	49.5	52	32.6	0	0	---	0.00	30.048 
22:50	49.4	49.4	49.4	53	33.0	0	0	---	0.00	30.048 
22:55	49.2	49.2	49.2	53	32.8	0	0	---	0.00	30.048 
23:00	49.1	49.1	49.1	53	32.7	0	0	---	0.00	30.052 
23:05	49.1	49.1	49.1	54	33.2	0	0	---	0.00	30.052 
23:10	48.9	48.9	48.9	52	32.1	0	0	---	0.00	30.052 
23:15	48.8	48.8	48.8	54	32.9	0	0	---	0.00	30.051 
23:20	48.5	48.5	48.5	54	32.6	0	0	---	0.00	30.051 
23:25	48.3	48.3	48.3	54	32.4	0	0	---	0.00	30.051 
23:30	48.0	48.0	48.0	54	32.2	0	0	---	0.00	30.050 
23:35	47.9	47.9	47.9	55	32.5	0	0	---	0.00	30.050 
23:40	47.6	47.6	47.6	55	32.2	0	0	---	0.00	30.050 
23:45	47.3	47.3	47.3	55	32.0	0	0	---	0.00	30.058 
23:50	47.1	47.1	47.1	55	31.8	0	0	---	0.00	30.058 
23:55	47.1	47.1	47.1	55	31.8	0	0	---	0.00	30.058 

CoCoRaHS
IN-AL-39
A2 Web Hosting
Creative Commons License
GoDaddy
search engine by freefind advanced

loaded 2018-11-21 01:45:21 • last modified 2010-11-18 10:43:29
Privacy PolicyDisclaimer
• wx.awcolley.com is powered by PmWiki v.2002016 •
• all content (unless otherwise noted) © 2018 A W Colley